createdAt,value
2017-04-20T04:04:21.896Z,1022.85
2017-04-20T04:05:02.379Z,1022.86
2017-04-20T04:05:42.836Z,1022.85
2017-04-20T04:06:23.321Z,1022.87
2017-04-20T04:07:04.541Z,1022.83
2017-04-20T04:09:22.286Z,1022.84
2017-04-20T04:10:02.749Z,1022.82
2017-04-20T04:10:43.193Z,1022.84
2017-04-20T04:11:23.666Z,1022.84
2017-04-20T04:12:04.096Z,1022.83
2017-04-20T04:12:44.523Z,1022.85
2017-04-20T04:13:24.945Z,1022.87
2017-04-20T04:14:06.902Z,1022.86
2017-04-20T04:14:47.310Z,1022.88
2017-04-20T04:15:27.785Z,1022.87
2017-04-20T04:16:09.111Z,1022.88
2017-04-20T04:16:49.564Z,1022.86
2017-04-20T04:17:30.009Z,1022.86
2017-04-20T04:18:10.475Z,1022.85
2017-04-20T04:18:50.942Z,1022.89
2017-04-20T04:19:31.362Z,1022.87
2017-04-20T04:20:11.794Z,1022.9
2017-04-20T04:20:52.311Z,1022.92
2017-04-20T04:21:32.781Z,1022.96
2017-04-20T04:22:13.207Z,1022.93
2017-04-20T04:22:53.689Z,1022.94
2017-04-20T04:23:34.143Z,1022.99
2017-04-20T04:24:14.604Z,1022.99
2017-04-20T04:24:55.038Z,1023.01
2017-04-20T04:25:35.484Z,1023.03
2017-04-20T04:26:15.939Z,1023.04
2017-04-20T04:26:56.354Z,1023.03
2017-04-20T04:27:36.788Z,1023.04
2017-04-20T04:29:49.465Z,1023.05
2017-04-20T04:30:29.940Z,1023.06
2017-04-20T04:31:10.420Z,1023.06
2017-04-20T04:31:50.881Z,1023.09
2017-04-20T04:32:31.362Z,1023.1
2017-04-20T04:33:11.794Z,1023.13
2017-04-20T04:33:52.248Z,1023.15
2017-04-20T04:34:32.702Z,1023.21
2017-04-20T04:35:13.151Z,1023.18
2017-04-20T04:35:53.581Z,1023.2
2017-04-20T04:36:34.021Z,1023.24
2017-04-20T04:37:14.497Z,1023.27
2017-04-20T04:37:54.951Z,1023.27
2017-04-20T04:38:35.409Z,1023.3
2017-04-20T04:39:15.850Z,1023.26
2017-04-20T04:39:56.294Z,1023.28
2017-04-20T04:40:36.756Z,1023.25
2017-04-20T04:41:17.220Z,1023.26
2017-04-20T04:41:57.620Z,1023.27
2017-04-20T04:42:38.036Z,1023.25
2017-04-20T04:43:18.453Z,1023.26
2017-04-20T04:43:58.887Z,1023.27
2017-04-20T04:44:39.312Z,1023.28
2017-04-20T04:45:19.767Z,1023.3
2017-04-20T04:46:00.190Z,1023.31
2017-04-20T04:46:40.641Z,1023.33
2017-04-20T04:47:21.862Z,1023.3
2017-04-20T04:48:02.296Z,1023.32
2017-04-20T04:48:42.742Z,1023.34
2017-04-20T04:49:23.152Z,1023.36
2017-04-20T04:51:51.270Z,1023.31
2017-04-20T04:52:31.724Z,1023.35
2017-04-20T04:53:12.189Z,1023.31
2017-04-20T04:53:52.649Z,1023.31
2017-04-20T04:54:33.087Z,1023.31
2017-04-20T04:55:13.555Z,1023.33
2017-04-20T04:55:54.017Z,1023.3
2017-04-20T04:56:34.473Z,1023.31
2017-04-20T04:57:14.937Z,1023.3
2017-04-20T04:57:55.370Z,1023.28
2017-04-20T04:58:35.794Z,1023.29
2017-04-20T04:59:16.240Z,1023.28
2017-04-20T04:59:56.703Z,1023.27
2017-04-20T05:00:37.125Z,1023.31
2017-04-20T05:02:50.012Z,1023.32
2017-04-20T05:03:30.462Z,1023.36
2017-04-20T05:04:10.935Z,1023.34
2017-04-20T05:04:51.381Z,1023.39
2017-04-20T05:05:31.850Z,1023.43
2017-04-20T05:06:12.320Z,1023.38
2017-04-20T05:06:52.822Z,1023.38
2017-04-20T05:07:33.273Z,1023.37
2017-04-20T05:08:13.741Z,1023.39
2017-04-20T05:08:54.227Z,1023.36
2017-04-20T05:09:34.736Z,1023.35
2017-04-20T05:10:15.222Z,1023.39
2017-04-20T05:10:55.754Z,1023.34
2017-04-20T05:13:08.670Z,1023.36
2017-04-20T05:13:49.136Z,1023.34
2017-04-20T05:14:29.584Z,1023.38
2017-04-20T05:15:10.087Z,1023.39
2017-04-20T05:15:50.559Z,1023.41
2017-04-20T05:16:31.070Z,1023.45
2017-04-20T05:17:11.582Z,1023.46
2017-04-20T05:17:52.070Z,1023.48
2017-04-20T05:18:32.598Z,1023.51
2017-04-20T05:20:30.433Z,1023.57
2017-04-20T05:21:10.872Z,1023.58
2017-04-20T05:21:51.382Z,1023.6
2017-04-20T05:22:31.848Z,1023.6
2017-04-20T05:23:12.325Z,1023.61
2017-04-20T05:23:53.417Z,1023.61
2017-04-20T05:24:33.897Z,1023.59
2017-04-20T05:25:14.391Z,1023.59
2017-04-20T05:25:54.861Z,1023.6
2017-04-20T05:26:35.323Z,1023.63
2017-04-20T05:27:15.777Z,1023.67
2017-04-20T05:27:56.234Z,1023.65
2017-04-20T05:28:36.688Z,1023.64
2017-04-20T05:29:17.147Z,1023.66
2017-04-20T05:29:57.605Z,1023.63
2017-04-20T05:30:38.067Z,1023.66
2017-04-20T05:31:18.519Z,1023.65
2017-04-20T05:31:58.978Z,1023.69
2017-04-20T05:32:39.481Z,1023.67
2017-04-20T05:33:19.914Z,1023.74
2017-04-20T05:34:00.446Z,1023.72
2017-04-20T05:34:40.913Z,1023.71
2017-04-20T05:35:21.365Z,1023.75
2017-04-20T05:36:01.794Z,1023.7
2017-04-20T05:36:42.236Z,1023.68
2017-04-20T05:39:00.015Z,1023.7
2017-04-20T05:39:40.506Z,1023.7
2017-04-20T05:40:20.973Z,1023.71
2017-04-20T05:41:01.437Z,1023.73
2017-04-20T05:41:41.902Z,1023.75
2017-04-20T05:42:22.358Z,1023.75
2017-04-20T05:43:02.806Z,1023.74
2017-04-20T05:43:43.254Z,1023.74
2017-04-20T05:44:23.718Z,1023.79
2017-04-20T05:45:04.176Z,1023.78
2017-04-20T05:45:44.611Z,1023.8
2017-04-20T05:46:25.063Z,1023.82
2017-04-20T05:47:05.538Z,1023.78
2017-04-20T05:47:45.983Z,1023.81
2017-04-20T05:48:26.378Z,1023.82
2017-04-20T05:49:06.808Z,1023.8
2017-04-20T05:49:47.251Z,1023.81
2017-04-20T05:50:27.725Z,1023.82
2017-04-20T05:51:08.189Z,1023.82
2017-04-20T05:51:48.655Z,1023.8
2017-04-20T05:52:29.115Z,1023.8
2017-04-20T05:53:09.559Z,1023.76
2017-04-20T05:53:49.996Z,1023.76
2017-04-20T05:54:30.433Z,1023.75
2017-04-20T05:55:10.857Z,1023.76
2017-04-20T05:55:51.407Z,1023.73
2017-04-20T05:56:31.869Z,1023.77
2017-04-20T05:57:12.317Z,1023.73
2017-04-20T05:57:52.795Z,1023.75
2017-04-20T05:58:33.286Z,1023.75
2017-04-20T05:59:14.740Z,1023.8
2017-04-20T05:59:55.249Z,1023.79
2017-04-20T06:00:35.693Z,1023.81
2017-04-20T06:01:16.161Z,1023.78
2017-04-20T06:01:56.602Z,1023.75
2017-04-20T06:02:37.112Z,1023.76
2017-04-20T06:03:17.567Z,1023.74
2017-04-20T06:03:58.038Z,1023.77
2017-04-20T06:04:38.522Z,1023.79
2017-04-20T06:05:19.036Z,1023.77
2017-04-20T06:05:59.504Z,1023.76
2017-04-20T06:06:40.005Z,1023.76
2017-04-20T06:07:20.520Z,1023.84
2017-04-20T06:08:00.993Z,1023.83
2017-04-20T06:08:41.429Z,1023.82
2017-04-20T06:09:21.890Z,1023.87
2017-04-20T06:10:02.403Z,1023.85
2017-04-20T06:10:42.904Z,1023.84
2017-04-20T06:11:23.343Z,1023.88
2017-04-20T06:12:03.794Z,1023.86
2017-04-20T06:12:44.307Z,1023.89
2017-04-20T06:13:24.744Z,1023.9
2017-04-20T06:14:05.199Z,1023.9
2017-04-20T06:14:45.641Z,1023.87
2017-04-20T06:15:26.112Z,1023.88
2017-04-20T06:16:06.576Z,1023.87
2017-04-20T06:16:47.033Z,1023.89
2017-04-20T06:17:27.477Z,1023.94
2017-04-20T06:18:07.939Z,1023.92
2017-04-20T06:18:48.418Z,1023.96
2017-04-20T06:19:28.858Z,1023.94
2017-04-20T06:21:56.774Z,1023.95
2017-04-20T06:22:37.249Z,1023.98
2017-04-20T06:23:18.358Z,1023.99
2017-04-20T06:23:58.823Z,1023.98
2017-04-20T06:24:39.419Z,1024.04
2017-04-20T06:25:19.848Z,1024.02
2017-04-20T06:26:00.318Z,1024.05
2017-04-20T06:26:40.801Z,1024.06
2017-04-20T06:27:21.301Z,1024.05
2017-04-20T06:28:01.789Z,1024.08
2017-04-20T06:28:42.276Z,1024.11
2017-04-20T06:29:22.740Z,1024.05
2017-04-20T06:30:03.207Z,1024.07
2017-04-20T06:30:43.667Z,1024.08
2017-04-20T06:31:24.191Z,1024.13
2017-04-20T06:32:04.636Z,1024.1
2017-04-20T06:32:45.104Z,1024.14
2017-04-20T06:34:37.711Z,1024.14
2017-04-20T06:35:18.169Z,1024.16
2017-04-20T06:35:58.662Z,1024.19
2017-04-20T06:38:26.613Z,1024.19
2017-04-20T06:39:07.090Z,1024.19
2017-04-20T06:39:47.590Z,1024.19
2017-04-20T06:40:28.057Z,1024.18
2017-04-20T06:41:08.558Z,1024.24
2017-04-20T06:41:49.793Z,1024.24
2017-04-20T06:42:30.329Z,1024.23
2017-04-20T06:43:10.759Z,1024.23
2017-04-20T06:43:51.239Z,1024.28
2017-04-20T06:44:31.731Z,1024.27
2017-04-20T06:45:12.185Z,1024.24
2017-04-20T06:45:52.666Z,1024.24
2017-04-20T06:46:33.214Z,1024.27
2017-04-20T06:47:13.702Z,1024.28
2017-04-20T06:47:54.169Z,1024.28
2017-04-20T06:48:34.629Z,1024.29
2017-04-20T06:50:32.304Z,1024.28
2017-04-20T06:52:29.992Z,1024.31
2017-04-20T06:53:10.704Z,1024.31
2017-04-20T06:53:51.166Z,1024.29
2017-04-20T06:56:19.081Z,1024.3
2017-04-20T06:56:59.579Z,1024.33
2017-04-20T06:57:40.045Z,1024.36
2017-04-20T06:58:20.506Z,1024.34
2017-04-20T06:59:01.011Z,1024.36
2017-04-20T06:59:41.465Z,1024.3
2017-04-20T07:00:21.956Z,1024.31
2017-04-20T07:01:02.338Z,1024.31
2017-04-20T07:01:42.828Z,1024.28
2017-04-20T07:04:00.865Z,1024.34
2017-04-20T07:04:41.400Z,1024.34
2017-04-20T07:05:21.881Z,1024.32
2017-04-20T07:06:02.338Z,1024.34
2017-04-20T07:06:42.829Z,1024.36
2017-04-20T07:07:23.297Z,1024.33
2017-04-20T07:08:03.714Z,1024.35
2017-04-20T07:08:44.212Z,1024.34
2017-04-20T07:09:24.630Z,1024.34
2017-04-20T07:10:05.048Z,1024.36
2017-04-20T07:10:45.496Z,1024.35
2017-04-20T07:13:13.412Z,1024.38
2017-04-20T07:13:53.884Z,1024.39
2017-04-20T07:14:34.350Z,1024.37
2017-04-20T07:15:14.807Z,1024.38
2017-04-20T07:15:55.280Z,1024.4
2017-04-20T07:16:35.830Z,1024.4
2017-04-20T07:17:16.282Z,1024.38
2017-04-20T07:17:56.737Z,1024.35
2017-04-20T07:18:37.210Z,1024.38
2017-04-20T07:19:17.665Z,1024.38
2017-04-20T07:19:58.114Z,1024.41
2017-04-20T07:20:38.579Z,1024.41
2017-04-20T07:21:19.041Z,1024.42
2017-04-20T07:21:59.512Z,1024.4
2017-04-20T07:22:39.994Z,1024.43
2017-04-20T07:23:20.463Z,1024.39
2017-04-20T07:24:00.926Z,1024.42
2017-04-20T07:24:41.363Z,1024.39
2017-04-20T07:25:21.821Z,1024.43
2017-04-20T07:26:02.349Z,1024.45
2017-04-20T07:26:42.859Z,1024.41
2017-04-20T07:27:23.353Z,1024.44
2017-04-20T07:28:04.031Z,1024.47
2017-04-20T07:28:44.556Z,1024.43
2017-04-20T07:29:25.022Z,1024.47
2017-04-20T07:30:05.540Z,1024.48
2017-04-20T07:30:45.975Z,1024.51
2017-04-20T07:31:26.416Z,1024.54
2017-04-20T07:32:07.540Z,1024.51
2017-04-20T07:32:47.960Z,1024.55
2017-04-20T07:36:24.488Z,1024.68
2017-04-20T07:37:04.943Z,1024.69
2017-04-20T07:37:45.394Z,1024.7
2017-04-20T07:39:38.271Z,1024.75
2017-04-20T07:40:19.099Z,1024.75
2017-04-20T07:41:00.406Z,1024.78
2017-04-20T07:41:40.892Z,1024.83
2017-04-20T07:42:21.343Z,1024.82
2017-04-20T07:43:01.828Z,1024.81
2017-04-20T07:43:42.304Z,1024.83
2017-04-20T07:44:23.427Z,1024.87
2017-04-20T07:45:03.954Z,1024.89
2017-04-20T07:45:44.441Z,1024.86
2017-04-20T07:46:24.937Z,1024.84
2017-04-20T07:47:05.454Z,1024.84
2017-04-20T07:47:45.963Z,1024.84
2017-04-20T07:48:26.482Z,1024.81
2017-04-20T07:50:24.125Z,1024.87
2017-04-20T07:51:04.621Z,1024.83
2017-04-20T07:51:45.114Z,1024.77
2017-04-20T07:52:25.656Z,1024.82
2017-04-20T07:53:06.184Z,1024.8
2017-04-20T07:53:46.665Z,1024.8
2017-04-20T07:54:27.205Z,1024.86
2017-04-20T07:55:07.672Z,1024.95
2017-04-20T07:55:48.144Z,1024.99
2017-04-20T07:56:28.661Z,1025.08
2017-04-20T07:57:09.150Z,1025.26
2017-04-20T07:57:49.662Z,1025.3
2017-04-20T07:58:30.221Z,1025.16
2017-04-20T07:59:10.722Z,1024.84
2017-04-20T07:59:51.286Z,1024.7
2017-04-20T08:00:31.859Z,1024.69
2017-04-20T08:01:12.373Z,1024.71
2017-04-20T08:01:52.872Z,1024.67
2017-04-20T08:02:34.100Z,1024.65
2017-04-20T08:03:15.215Z,1024.68
2017-04-20T08:03:55.839Z,1024.74
2017-04-20T08:04:36.352Z,1024.73
2017-04-20T08:05:16.822Z,1024.67
2017-04-20T08:07:14.483Z,1024.71
2017-04-20T08:07:55.059Z,1024.7
2017-04-20T08:08:35.579Z,1024.72
2017-04-20T08:09:16.022Z,1024.68
2017-04-20T08:09:56.541Z,1024.62
2017-04-20T08:10:37.165Z,1024.66
2017-04-20T08:11:17.640Z,1024.63
2017-04-20T08:11:58.250Z,1024.65
2017-04-20T08:12:38.657Z,1024.65
2017-04-20T08:13:19.345Z,1024.8
2017-04-20T08:15:17.743Z,1025.17
2017-04-20T08:16:02.862Z,1025.18
2017-04-20T08:16:44.249Z,1025.1
2017-04-20T08:17:24.655Z,1025.15
2017-04-20T08:18:05.487Z,1025.19
2017-04-20T08:19:58.021Z,1025.29
2017-04-20T08:20:38.525Z,1025.21
2017-04-20T08:21:18.994Z,1025.29
2017-04-20T08:21:59.470Z,1025.28
2017-04-20T08:22:40.310Z,1025.34
2017-04-20T08:23:21.094Z,1025.35
2017-04-20T08:24:01.522Z,1025.41
2017-04-20T08:24:42.302Z,1025.38
2017-04-20T08:25:22.767Z,1025.42
2017-04-20T08:26:03.270Z,1025.43
2017-04-20T08:26:44.065Z,1025.45
2017-04-20T08:27:24.539Z,1025.45
2017-04-20T08:28:05.008Z,1025.51
2017-04-20T08:28:45.470Z,1025.49
2017-04-20T08:32:52.038Z,1025.76
2017-04-20T08:33:32.535Z,1025.33
2017-04-20T08:34:13.045Z,1025.78
2017-04-20T08:34:53.587Z,1025.79
2017-04-20T08:35:34.006Z,1025.82
2017-04-20T08:36:14.456Z,1025.85
2017-04-20T08:36:54.949Z,1025.81
2017-04-20T08:37:35.384Z,1025.84
2017-04-20T08:38:16.711Z,1025.92
2017-04-20T08:40:35.382Z,1026.09
2017-04-20T08:41:15.841Z,1026.11
2017-04-20T08:41:56.289Z,1026.1
2017-04-20T08:42:36.945Z,1026.18
2017-04-20T08:43:17.400Z,1026.24
2017-04-20T08:43:57.947Z,1026.39
2017-04-20T08:44:38.418Z,1026.48
2017-04-20T08:45:19.106Z,1026.45
2017-04-20T08:45:59.537Z,1026.47
2017-04-20T08:46:40.088Z,1026.48
2017-04-20T08:47:20.588Z,1026.5
2017-04-20T08:48:01.056Z,1026.58
2017-04-20T08:50:29.506Z,1026.85
2017-04-20T08:51:09.893Z,1026.92
2017-04-20T08:51:50.375Z,1027.05
2017-04-20T08:52:30.870Z,1027.08
2017-04-20T08:53:11.343Z,1027.11
2017-04-20T08:55:24.226Z,1027.14
2017-04-20T08:56:04.730Z,1027.21
2017-04-20T08:56:45.246Z,1027.27
2017-04-20T08:57:25.771Z,1027.27
2017-04-20T08:58:06.202Z,1027.37
2017-04-20T08:58:46.666Z,1027.52
2017-04-20T08:59:27.168Z,1027.55
2017-04-20T09:00:07.663Z,1027.41
2017-04-20T09:00:48.117Z,1027.53
2017-04-20T09:01:29.327Z,1027.54
2017-04-20T09:02:09.776Z,1027.55
2017-04-20T09:02:50.373Z,1027.51
2017-04-20T09:03:30.757Z,1026.81
2017-04-20T09:04:11.217Z,1025.83
2017-04-20T09:04:51.744Z,1025.38
2017-04-20T09:05:32.304Z,1025.44
2017-04-20T09:07:24.962Z,1025.28
2017-04-20T09:08:05.640Z,1025.19
2017-04-20T09:08:46.055Z,1025.25
2017-04-20T09:09:26.545Z,1025.42
2017-04-20T09:11:19.149Z,1025.31
2017-04-20T09:11:59.603Z,1025.25
2017-04-20T09:12:40.117Z,1025.12
2017-04-20T09:13:20.629Z,1025.12
2017-04-20T09:14:01.071Z,1025.04
2017-04-20T09:14:41.592Z,1024.97
2017-04-20T09:15:22.107Z,1024.98
2017-04-20T09:16:02.567Z,1025.17
2017-04-20T09:16:43.123Z,1025.43
2017-04-20T09:17:23.575Z,1026.33
2017-04-20T09:18:04.072Z,1025.1
2017-04-20T09:18:44.631Z,1025.24
2017-04-20T09:19:25.126Z,1027.18
2017-04-20T09:20:05.595Z,1025.82
2017-04-20T09:20:46.097Z,1025.1
2017-04-20T09:21:26.581Z,1025.13
2017-04-20T09:22:07.027Z,1025.16
2017-04-20T09:22:47.482Z,1025.28
2017-04-20T09:23:27.942Z,1025.43
2017-04-20T09:24:08.423Z,1025.43
2017-04-20T09:24:48.882Z,1025.39
2017-04-20T09:25:29.366Z,1025.48
2017-04-20T09:26:09.853Z,1025.55
2017-04-20T09:28:27.749Z,1025.01
2017-04-20T09:29:11.311Z,1025.19
2017-04-20T09:29:51.853Z,1025.14
2017-04-20T09:30:32.366Z,1025.22
2017-04-20T09:31:12.891Z,1025.28
2017-04-20T09:31:54.185Z,1026.14
2017-04-20T09:32:34.830Z,1025.19
2017-04-20T09:33:15.297Z,1025.22
2017-04-20T09:33:55.825Z,1025.19
2017-04-20T09:34:36.441Z,1025.09
2017-04-20T09:36:49.499Z,1027.13
2017-04-20T09:37:29.945Z,1027.08
2017-04-20T09:38:10.411Z,1026.96
2017-04-20T09:38:50.906Z,1025.77
2017-04-20T09:39:31.403Z,1025.58
2017-04-20T09:40:11.880Z,1026.44
2017-04-20T09:40:52.520Z,1026.62
2017-04-20T09:41:33.007Z,1026.1
2017-04-20T09:42:13.502Z,1026.44
2017-04-20T09:42:53.964Z,1026.28
2017-04-20T09:43:34.445Z,1026.08
2017-04-20T09:45:52.342Z,1025.53
2017-04-20T09:46:32.890Z,1025.37
2017-04-20T09:47:13.366Z,1025.39
2017-04-20T09:47:53.927Z,1025.39
2017-04-20T09:48:34.376Z,1025.29
2017-04-20T09:49:14.914Z,1025.22
2017-04-20T09:49:55.419Z,1025.28
2017-04-20T09:50:35.928Z,1025.28
2017-04-20T09:51:16.407Z,1025.35
2017-04-20T09:51:56.881Z,1025.32
2017-04-20T09:52:37.337Z,1025.24
2017-04-20T09:53:17.811Z,1025.14
2017-04-20T09:53:58.333Z,1025.17
2017-04-20T09:54:38.816Z,1025.17
2017-04-20T09:55:19.283Z,1025.23
2017-04-20T09:57:32.405Z,1025.36
2017-04-20T09:58:14.491Z,1025.44
2017-04-20T09:58:54.847Z,1025.33
2017-04-20T09:59:35.329Z,1025.18
2017-04-20T10:00:15.839Z,1025.14
2017-04-20T10:00:56.329Z,1025.2
2017-04-20T10:01:36.796Z,1025.33
2017-04-20T10:02:17.276Z,1025.45
2017-04-20T10:02:57.748Z,1026.19
2017-04-20T10:03:38.281Z,1026.3
2017-04-20T10:04:18.712Z,1026.14
2017-04-20T10:04:59.240Z,1026.89
2017-04-20T10:05:39.734Z,1029.62
2017-04-20T10:06:20.195Z,1036.55
2017-04-20T10:08:13.005Z,1026.08
2017-04-20T10:08:53.899Z,1036.41
2017-04-20T10:09:34.779Z,1036.18
2017-04-20T10:10:15.562Z,1039.6
2017-04-20T10:10:56.371Z,1040.52
2017-04-20T10:11:37.020Z,1041.12
2017-04-20T10:12:17.849Z,1041.84
2017-04-20T10:14:13.656Z,1042.79
2017-04-20T10:14:54.169Z,1043.04
2017-04-20T10:15:34.643Z,1042.4
2017-04-20T10:16:15.113Z,1035.84
2017-04-20T10:16:55.591Z,1029.38
2017-04-20T10:17:36.017Z,1024.92
2017-04-20T10:18:16.510Z,1024.79
2017-04-20T10:18:57.043Z,1024.78
2017-04-20T10:19:37.584Z,1024.81
2017-04-20T10:20:18.103Z,1024.84
2017-04-20T10:20:59.014Z,1024.85
2017-04-20T10:21:39.558Z,1024.75
2017-04-20T10:22:20.054Z,1024.72
2017-04-20T10:23:00.504Z,1024.72
2017-04-20T10:23:40.976Z,1024.71
2017-04-20T10:24:21.411Z,1024.7
2017-04-20T10:25:01.872Z,1024.67
2017-04-20T10:25:42.334Z,1024.67
2017-04-20T10:26:22.788Z,1024.67
2017-04-20T10:27:03.248Z,1024.7
2017-04-20T10:27:43.697Z,1024.7
2017-04-20T10:28:24.166Z,1024.69
2017-04-20T10:29:04.628Z,1024.75
2017-04-20T10:29:45.086Z,1024.75
2017-04-20T10:30:25.530Z,1024.72
2017-04-20T10:31:05.996Z,1024.72
2017-04-20T10:31:46.462Z,1024.78
2017-04-20T10:32:27.701Z,1024.76
2017-04-20T10:34:40.482Z,1034.04
2017-04-20T10:35:20.955Z,1039.99
2017-04-20T10:36:01.403Z,1035.85
2017-04-20T10:36:41.963Z,1027.47
2017-04-20T10:37:22.491Z,1024.53
2017-04-20T10:38:02.956Z,1024.52
2017-04-20T10:38:43.484Z,1024.52
2017-04-20T10:39:23.941Z,1024.53
2017-04-20T10:40:04.559Z,1024.54
2017-04-20T10:40:45.078Z,1024.51
2017-04-20T10:42:42.741Z,1024.51
2017-04-20T10:43:23.214Z,1024.45
2017-04-20T10:44:03.738Z,1024.48
2017-04-20T10:44:44.222Z,1024.51
2017-04-20T10:48:35.001Z,1024.65
2017-04-20T10:49:16.128Z,1028.87
2017-04-20T10:49:56.642Z,1039.75
2017-04-20T10:50:37.247Z,1050.87
2017-04-20T10:51:17.807Z,1056.29
2017-04-20T10:51:58.312Z,1056.49
2017-04-20T10:52:38.839Z,1056.72
2017-04-20T10:53:19.339Z,1056.79
2017-04-20T10:54:00.073Z,1058.68
2017-04-20T10:54:41.009Z,1059.14
2017-04-20T10:55:21.878Z,1060.38
2017-04-20T10:56:02.381Z,1059.99
2017-04-20T10:56:42.812Z,1059.14
2017-04-20T10:59:01.975Z,1060.08
2017-04-20T10:59:42.469Z,1059.71
2017-04-20T11:00:22.934Z,1059.63
2017-04-20T11:01:03.392Z,1059.15
2017-04-20T11:01:43.968Z,1059.68
2017-04-20T11:02:24.477Z,1060
2017-04-20T11:03:04.933Z,1059.96
2017-04-20T11:03:45.405Z,1060.2
2017-04-20T11:04:25.831Z,1059.75
2017-04-20T11:05:06.354Z,1059.08
2017-04-20T11:05:46.808Z,1058.84
2017-04-20T11:06:27.323Z,1059.83
2017-04-20T11:08:45.155Z,1059.72
2017-04-20T11:09:25.606Z,1059.96
2017-04-20T11:10:06.066Z,1060.19
2017-04-20T11:12:03.718Z,1060.48
2017-04-20T11:12:44.196Z,1059.55
2017-04-20T11:13:24.724Z,1058.54
2017-04-20T11:14:05.190Z,1058.36
2017-04-20T11:14:45.695Z,1058.57
2017-04-20T11:15:26.253Z,1051.33
2017-04-20T11:16:06.697Z,1050.13
2017-04-20T11:16:47.116Z,1057.05
2017-04-20T11:17:27.593Z,1056.36
2017-04-20T11:18:08.052Z,1056.27
2017-04-20T11:18:48.573Z,1057.27
2017-04-20T11:19:29.133Z,1058.2
2017-04-20T11:20:09.615Z,1057.91
2017-04-20T11:20:50.235Z,1056.71
2017-04-20T11:21:30.907Z,1057.26
2017-04-20T11:23:28.581Z,1057.98
2017-04-20T11:24:09.087Z,1057.81
2017-04-20T11:24:49.608Z,1058.1
2017-04-20T11:25:30.131Z,1057.63
2017-04-20T11:26:10.559Z,1056.56
2017-04-20T11:26:51.024Z,1056.19
2017-04-20T11:27:31.537Z,1057.4
2017-04-20T11:28:12.001Z,1056.33
2017-04-20T11:28:52.464Z,1053.04
2017-04-20T11:29:32.938Z,1057.38
2017-04-20T11:30:13.416Z,1057.67
2017-04-20T11:30:53.974Z,1058.7
2017-04-20T11:31:34.460Z,1034.49
2017-04-20T11:32:14.930Z,1052.91
2017-04-20T11:32:55.521Z,1059.99
2017-04-20T11:33:36.090Z,1057.47
2017-04-20T11:34:16.674Z,1060.52
2017-04-20T11:34:57.247Z,1060.83
2017-04-20T11:35:37.802Z,1060.19
2017-04-20T11:36:18.309Z,1059.74
2017-04-20T11:36:59.397Z,1059.88
2017-04-20T11:37:40.047Z,1059.91
2017-04-20T11:38:20.638Z,1059.84
2017-04-20T11:39:01.216Z,1060.21
2017-04-20T11:39:41.766Z,1059.03
2017-04-20T11:40:22.378Z,1058.67
2017-04-20T11:41:02.985Z,1058.48
2017-04-20T11:41:43.657Z,1059.04
2017-04-20T11:42:24.314Z,1058.29
2017-04-20T11:44:52.393Z,1056.36
2017-04-20T11:45:32.936Z,1055.32
2017-04-20T11:46:13.490Z,1055.25
2017-04-20T11:46:54.065Z,1055.94
2017-04-20T11:47:34.616Z,1056.11
2017-04-20T11:48:15.237Z,1056.61
2017-04-20T11:48:56.317Z,1057.19
2017-04-20T11:49:36.892Z,1057.41
2017-04-20T11:50:17.522Z,1057.7
2017-04-20T11:50:58.072Z,1057.07
2017-04-20T11:51:38.858Z,1056.43
2017-04-20T11:53:51.682Z,1055.26
2017-04-20T11:54:32.316Z,1055.74
2017-04-20T11:55:12.871Z,1055.36
2017-04-20T11:55:53.442Z,1055.35
2017-04-20T11:56:34.026Z,1055.81
2017-04-20T12:00:14.235Z,1055.19
2017-04-20T12:00:54.677Z,1055.76
2017-04-20T12:01:35.174Z,1056.72
2017-04-20T12:02:15.719Z,1057.69
2017-04-20T12:02:56.210Z,1057.25
2017-04-20T12:03:36.684Z,1056.5
2017-04-20T12:04:17.258Z,1056.69
2017-04-20T12:04:57.825Z,1056.54
2017-04-20T12:05:38.392Z,1056.58
2017-04-20T12:07:51.189Z,1054.98
2017-04-20T12:08:31.718Z,1054.96
2017-04-20T12:09:12.243Z,1054.29
2017-04-20T12:09:53.580Z,1053.12
2017-04-20T12:10:34.105Z,1053
2017-04-20T12:11:14.742Z,1053.04
2017-04-20T12:11:55.215Z,1053.03
2017-04-20T12:12:35.768Z,1053.4
2017-04-20T12:13:16.329Z,1052.82
2017-04-20T12:13:56.796Z,1052.47
2017-04-20T12:14:37.242Z,1051.62
2017-04-20T12:17:05.258Z,1051.81
2017-04-20T12:17:45.785Z,1052
2017-04-20T12:18:26.279Z,1052.59
2017-04-20T12:19:06.879Z,1051.58
2017-04-20T12:19:47.335Z,1050.61
2017-04-20T12:20:27.793Z,1049.53
2017-04-20T12:21:08.303Z,1049.17
2017-04-20T12:23:05.995Z,1046.35
2017-04-20T12:23:46.554Z,1045.53
2017-04-20T12:24:27.019Z,1045.25
2017-04-20T12:25:07.542Z,1045.76
2017-04-20T12:25:48.116Z,1045.12
2017-04-20T12:26:28.768Z,1044.78
2017-04-20T12:27:09.300Z,1043.92
2017-04-20T12:27:49.809Z,1043.36
2017-04-20T12:30:02.636Z,1041.39
2017-04-20T12:30:43.395Z,1041.66
2017-04-20T12:31:23.840Z,1041.26
2017-04-20T12:32:04.385Z,1041.76
2017-04-20T12:34:32.563Z,1040.73
2017-04-20T12:35:13.154Z,1040.17
2017-04-20T12:35:53.778Z,1039.91
2017-04-20T12:36:34.397Z,1039.85
2017-04-20T12:37:15.028Z,1039.45
2017-04-20T12:37:55.539Z,1038.57
2017-04-20T12:38:36.028Z,1037.53
2017-04-20T12:39:16.522Z,1036.78
2017-04-20T12:39:57.172Z,1036.47
2017-04-20T12:40:37.667Z,1035.99
2017-04-20T12:41:18.130Z,1035.68
2017-04-20T12:41:58.634Z,1035.05
2017-04-20T12:42:39.051Z,1034.92
2017-04-20T12:46:29.384Z,1024.26
2017-04-20T12:47:09.888Z,1023.9
2017-04-20T12:47:50.347Z,1023.88
2017-04-20T12:48:30.814Z,1023.84
2017-04-20T12:49:11.269Z,1023.79
2017-04-20T12:49:52.681Z,1023.75
2017-04-20T12:50:33.139Z,1023.74
2017-04-20T12:53:01.370Z,1023.68
2017-04-20T12:53:41.867Z,1023.63
2017-04-20T12:54:22.371Z,1023.61
2017-04-20T12:55:02.921Z,1023.63
2017-04-20T12:55:43.409Z,1023.59
2017-04-20T12:56:23.930Z,1023.6
2017-04-20T12:57:04.512Z,1023.59
2017-04-20T12:59:32.623Z,1023.51
2017-04-20T13:00:13.092Z,1023.46
2017-04-20T13:00:53.615Z,1023.46
2017-04-20T13:01:34.138Z,1023.44
2017-04-20T13:02:14.625Z,1023.41
2017-04-20T13:02:55.215Z,1023.4
2017-04-20T13:03:50.496Z,1023.37
2017-04-20T13:05:48.187Z,1023.38
2017-04-20T13:06:28.683Z,1023.42
2017-04-20T13:07:09.208Z,1023.37
2017-04-20T13:07:49.723Z,1023.33
2017-04-20T13:08:30.193Z,1023.32
2017-04-20T13:09:10.700Z,1023.32
2017-04-20T13:09:51.499Z,1023.27
2017-04-20T13:12:09.427Z,1023.28
2017-04-20T13:12:50.005Z,1023.26
2017-04-20T13:13:30.435Z,1023.24
2017-04-20T13:14:10.984Z,1023.23
2017-04-20T13:16:29.049Z,1023.15
2017-04-20T13:17:09.551Z,1023.16
2017-04-20T13:17:50.115Z,1023.16
2017-04-20T13:18:30.886Z,1023.2
2017-04-20T13:20:43.687Z,1023.15
2017-04-20T13:21:24.200Z,1023.12
2017-04-20T13:22:04.701Z,1023.14
2017-04-20T13:22:45.156Z,1023.11
2017-04-20T13:23:25.670Z,1023.1
2017-04-20T13:24:06.217Z,1023.13
2017-04-20T13:24:46.676Z,1023.13
2017-04-20T13:25:27.198Z,1023.1
2017-04-20T13:26:08.391Z,1023.13
2017-04-20T13:26:48.884Z,1023.1
2017-04-20T13:27:29.392Z,1023.08
2017-04-20T13:29:27.046Z,1023.01
2017-04-20T13:30:07.505Z,1023.02
2017-04-20T13:30:48.030Z,1022.98
2017-04-20T13:31:28.602Z,1023.05
2017-04-20T13:32:09.064Z,1023.07
2017-04-20T13:32:49.522Z,1023.07
2017-04-20T13:33:30.011Z,1023.11
2017-04-20T13:34:10.444Z,1023.15
2017-04-20T13:34:50.913Z,1023.16
2017-04-20T13:35:31.523Z,1023.33
2017-04-20T13:36:12.017Z,1023.59
2017-04-20T13:36:52.449Z,1023.76
2017-04-20T13:37:32.927Z,1023.81
2017-04-20T13:38:13.459Z,1023.72
2017-04-20T13:38:53.923Z,1023.82
2017-04-20T13:39:34.621Z,1023.82
2017-04-20T13:40:17.145Z,1023.83
2017-04-20T13:40:57.626Z,1023.87
2017-04-20T13:41:38.366Z,1023.88
2017-04-20T13:42:18.883Z,1023.88
2017-04-20T13:42:59.343Z,1023.93
2017-04-20T13:43:39.835Z,1023.99
2017-04-20T13:44:20.385Z,1023.98
2017-04-20T13:45:00.839Z,1024.05
2017-04-20T13:45:41.333Z,1023.97
2017-04-20T13:46:21.808Z,1023.82
2017-04-20T13:47:02.232Z,1023.8
2017-04-20T13:47:43.038Z,1023.9
2017-04-20T13:48:23.468Z,1023.98
2017-04-20T13:49:03.956Z,1023.95